sensor_id;sensor_type;location;lat;lon;timestamp;P1;durP1;ratioP1;P2;durP2;ratioP2
71080;SDS011;58740;50.672;18.690;2023-05-15T00:02:10;6.60;;;3.50;;
71080;SDS011;58740;50.672;18.690;2023-05-15T00:04:39;7.10;;;3.60;;
71080;SDS011;58740;50.672;18.690;2023-05-15T00:07:07;7.00;;;3.20;;
71080;SDS011;58740;50.672;18.690;2023-05-15T00:09:35;6.80;;;3.70;;
71080;SDS011;58740;50.672;18.690;2023-05-15T00:12:03;7.50;;;3.50;;
71080;SDS011;58740;50.672;18.690;2023-05-15T00:14:31;6.40;;;3.30;;
71080;SDS011;58740;50.672;18.690;2023-05-15T00:16:59;6.30;;;3.20;;
71080;SDS011;58740;50.672;18.690;2023-05-15T00:19:26;9.10;;;3.60;;
71080;SDS011;58740;50.672;18.690;2023-05-15T00:21:54;6.50;;;3.40;;
71080;SDS011;58740;50.672;18.690;2023-05-15T00:24:22;7.70;;;3.20;;
71080;SDS011;58740;50.672;18.690;2023-05-15T00:26:49;7.40;;;3.20;;
71080;SDS011;58740;50.672;18.690;2023-05-15T00:29:17;6.30;;;3.30;;
71080;SDS011;58740;50.672;18.690;2023-05-15T00:31:44;6.60;;;3.50;;
71080;SDS011;58740;50.672;18.690;2023-05-15T00:34:12;7.50;;;3.50;;
71080;SDS011;58740;50.672;18.690;2023-05-15T00:36:40;5.90;;;3.10;;
71080;SDS011;58740;50.672;18.690;2023-05-15T00:39:08;9.20;;;3.80;;
71080;SDS011;58740;50.672;18.690;2023-05-15T00:41:36;7.20;;;3.60;;
71080;SDS011;58740;50.672;18.690;2023-05-15T00:44:05;6.30;;;3.20;;
71080;SDS011;58740;50.672;18.690;2023-05-15T00:46:34;6.30;;;3.40;;
71080;SDS011;58740;50.672;18.690;2023-05-15T00:49:03;7.60;;;3.20;;
71080;SDS011;58740;50.672;18.690;2023-05-15T00:51:34;9.30;;;3.70;;
71080;SDS011;58740;50.672;18.690;2023-05-15T00:54:02;7.80;;;3.70;;
71080;SDS011;58740;50.672;18.690;2023-05-15T00:56:31;9.30;;;5.00;;
71080;SDS011;58740;50.672;18.690;2023-05-15T00:59:03;8.00;;;4.70;;
71080;SDS011;58740;50.672;18.690;2023-05-15T01:01:33;8.10;;;3.60;;
71080;SDS011;58740;50.672;18.690;2023-05-15T01:04:02;6.70;;;2.90;;
71080;SDS011;58740;50.672;18.690;2023-05-15T01:06:31;5.90;;;3.00;;
71080;SDS011;58740;50.672;18.690;2023-05-15T01:08:59;7.50;;;3.40;;
71080;SDS011;58740;50.672;18.690;2023-05-15T01:11:34;7.00;;;3.30;;
71080;SDS011;58740;50.672;18.690;2023-05-15T01:14:06;7.60;;;3.70;;
71080;SDS011;58740;50.672;18.690;2023-05-15T01:16:35;6.90;;;3.60;;
71080;SDS011;58740;50.672;18.690;2023-05-15T01:19:03;5.90;;;2.90;;
71080;SDS011;58740;50.672;18.690;2023-05-15T01:27:36;6.10;;;3.20;;
71080;SDS011;58740;50.672;18.690;2023-05-15T01:30:32;8.20;;;3.70;;
71080;SDS011;58740;50.672;18.690;2023-05-15T01:33:06;7.20;;;3.60;;
71080;SDS011;58740;50.672;18.690;2023-05-15T01:36:06;7.70;;;3.70;;
71080;SDS011;58740;50.672;18.690;2023-05-15T01:39:01;7.60;;;3.60;;
71080;SDS011;58740;50.672;18.690;2023-05-15T01:41:34;6.10;;;3.20;;
71080;SDS011;58740;50.672;18.690;2023-05-15T01:44:22;7.50;;;3.00;;
71080;SDS011;58740;50.672;18.690;2023-05-15T01:47:03;5.70;;;2.80;;
71080;SDS011;58740;50.672;18.690;2023-05-15T01:49:36;6.30;;;2.80;;
71080;SDS011;58740;50.672;18.690;2023-05-15T01:52:13;5.70;;;3.00;;
71080;SDS011;58740;50.672;18.690;2023-05-15T01:54:45;6.30;;;3.00;;
71080;SDS011;58740;50.672;18.690;2023-05-15T01:57:16;6.10;;;2.90;;
71080;SDS011;58740;50.672;18.690;2023-05-15T01:59:46;6.30;;;3.10;;
71080;SDS011;58740;50.672;18.690;2023-05-15T02:02:33;7.00;;;3.80;;
71080;SDS011;58740;50.672;18.690;2023-05-15T02:05:03;6.70;;;3.30;;
71080;SDS011;58740;50.672;18.690;2023-05-15T02:07:32;5.60;;;3.00;;
71080;SDS011;58740;50.672;18.690;2023-05-15T02:10:02;6.90;;;2.80;;
71080;SDS011;58740;50.672;18.690;2023-05-15T02:12:30;5.90;;;3.00;;
71080;SDS011;58740;50.672;18.690;2023-05-15T02:15:02;6.60;;;2.90;;
71080;SDS011;58740;50.672;18.690;2023-05-15T02:17:30;7.80;;;3.30;;
71080;SDS011;58740;50.672;18.690;2023-05-15T02:19:58;6.30;;;3.10;;
71080;SDS011;58740;50.672;18.690;2023-05-15T02:22:26;8.30;;;4.00;;
71080;SDS011;58740;50.672;18.690;2023-05-15T02:24:54;7.10;;;3.80;;
71080;SDS011;58740;50.672;18.690;2023-05-15T02:27:34;6.50;;;3.30;;
71080;SDS011;58740;50.672;18.690;2023-05-15T02:35:56;7.80;;;3.20;;
71080;SDS011;58740;50.672;18.690;2023-05-15T02:38:37;7.80;;;2.90;;
71080;SDS011;58740;50.672;18.690;2023-05-15T02:41:11;7.30;;;3.40;;
71080;SDS011;58740;50.672;18.690;2023-05-15T02:43:41;6.10;;;3.30;;
71080;SDS011;58740;50.672;18.690;2023-05-15T02:46:11;6.60;;;2.90;;
71080;SDS011;58740;50.672;18.690;2023-05-15T02:48:41;6.70;;;3.10;;
71080;SDS011;58740;50.672;18.690;2023-05-15T02:51:10;7.70;;;3.20;;
71080;SDS011;58740;50.672;18.690;2023-05-15T02:53:39;6.30;;;3.30;;
71080;SDS011;58740;50.672;18.690;2023-05-15T02:56:08;7.50;;;3.60;;
71080;SDS011;58740;50.672;18.690;2023-05-15T02:58:37;6.60;;;3.80;;
71080;SDS011;58740;50.672;18.690;2023-05-15T03:01:06;7.10;;;3.60;;
71080;SDS011;58740;50.672;18.690;2023-05-15T03:03:34;6.80;;;3.50;;
71080;SDS011;58740;50.672;18.690;2023-05-15T03:06:02;5.70;;;3.20;;
71080;SDS011;58740;50.672;18.690;2023-05-15T03:08:29;6.70;;;3.80;;
71080;SDS011;58740;50.672;18.690;2023-05-15T03:10:57;6.00;;;3.30;;
71080;SDS011;58740;50.672;18.690;2023-05-15T03:13:25;8.00;;;4.20;;
71080;SDS011;58740;50.672;18.690;2023-05-15T03:15:53;8.70;;;5.40;;
71080;SDS011;58740;50.672;18.690;2023-05-15T03:18:21;10.50;;;6.30;;
71080;SDS011;58740;50.672;18.690;2023-05-15T03:20:51;7.80;;;5.80;;
71080;SDS011;58740;50.672;18.690;2023-05-15T03:23:19;6.60;;;3.90;;
71080;SDS011;58740;50.672;18.690;2023-05-15T03:25:47;6.80;;;3.20;;
71080;SDS011;58740;50.672;18.690;2023-05-15T03:28:15;7.00;;;3.50;;
71080;SDS011;58740;50.672;18.690;2023-05-15T03:30:43;7.90;;;3.80;;
71080;SDS011;58740;50.672;18.690;2023-05-15T03:33:11;7.70;;;3.50;;
71080;SDS011;58740;50.672;18.690;2023-05-15T03:35:39;6.60;;;3.50;;
71080;SDS011;58740;50.672;18.690;2023-05-15T03:38:07;6.90;;;4.00;;
71080;SDS011;58740;50.672;18.690;2023-05-15T03:40:37;6.70;;;3.50;;
71080;SDS011;58740;50.672;18.690;2023-05-15T03:43:05;6.00;;;3.30;;
71080;SDS011;58740;50.672;18.690;2023-05-15T03:45:33;6.50;;;3.60;;
71080;SDS011;58740;50.672;18.690;2023-05-15T03:48:03;6.70;;;3.90;;
71080;SDS011;58740;50.672;18.690;2023-05-15T03:50:31;6.90;;;3.50;;
71080;SDS011;58740;50.672;18.690;2023-05-15T03:52:59;7.80;;;3.40;;
71080;SDS011;58740;50.672;18.690;2023-05-15T03:55:27;7.10;;;3.30;;
71080;SDS011;58740;50.672;18.690;2023-05-15T03:57:56;5.30;;;3.00;;
71080;SDS011;58740;50.672;18.690;2023-05-15T04:00:24;7.90;;;2.70;;
71080;SDS011;58740;50.672;18.690;2023-05-15T04:02:52;6.70;;;3.60;;
71080;SDS011;58740;50.672;18.690;2023-05-15T04:05:20;6.70;;;3.50;;
71080;SDS011;58740;50.672;18.690;2023-05-15T04:07:49;10.10;;;4.70;;
71080;SDS011;58740;50.672;18.690;2023-05-15T04:10:16;8.30;;;3.80;;
71080;SDS011;58740;50.672;18.690;2023-05-15T04:12:44;8.30;;;3.80;;
71080;SDS011;58740;50.672;18.690;2023-05-15T04:15:18;7.60;;;4.60;;
71080;SDS011;58740;50.672;18.690;2023-05-15T04:17:51;7.10;;;4.10;;
71080;SDS011;58740;50.672;18.690;2023-05-15T04:20:21;5.50;;;2.60;;
71080;SDS011;58740;50.672;18.690;2023-05-15T04:22:51;7.60;;;4.00;;
71080;SDS011;58740;50.672;18.690;2023-05-15T04:25:19;9.50;;;4.40;;
71080;SDS011;58740;50.672;18.690;2023-05-15T04:27:47;8.50;;;4.90;;
71080;SDS011;58740;50.672;18.690;2023-05-15T04:30:15;8.00;;;4.10;;
71080;SDS011;58740;50.672;18.690;2023-05-15T04:32:43;8.10;;;4.30;;
71080;SDS011;58740;50.672;18.690;2023-05-15T04:35:11;6.70;;;4.30;;
71080;SDS011;58740;50.672;18.690;2023-05-15T04:37:41;8.60;;;4.60;;
71080;SDS011;58740;50.672;18.690;2023-05-15T04:40:12;7.90;;;4.30;;
71080;SDS011;58740;50.672;18.690;2023-05-15T04:42:42;8.10;;;4.70;;
71080;SDS011;58740;50.672;18.690;2023-05-15T04:45:10;7.80;;;5.10;;
71080;SDS011;58740;50.672;18.690;2023-05-15T04:47:38;10.80;;;4.70;;
71080;SDS011;58740;50.672;18.690;2023-05-15T04:50:06;10.10;;;4.30;;
71080;SDS011;58740;50.672;18.690;2023-05-15T04:52:34;9.70;;;4.60;;
71080;SDS011;58740;50.672;18.690;2023-05-15T04:55:02;7.50;;;4.50;;
71080;SDS011;58740;50.672;18.690;2023-05-15T04:57:30;7.20;;;3.40;;
71080;SDS011;58740;50.672;18.690;2023-05-15T04:59:57;8.10;;;5.40;;
71080;SDS011;58740;50.672;18.690;2023-05-15T05:02:25;8.10;;;4.80;;
71080;SDS011;58740;50.672;18.690;2023-05-15T05:04:53;8.90;;;5.00;;
71080;SDS011;58740;50.672;18.690;2023-05-15T05:07:21;9.20;;;5.90;;
71080;SDS011;58740;50.672;18.690;2023-05-15T05:09:49;8.90;;;5.50;;
71080;SDS011;58740;50.672;18.690;2023-05-15T05:12:16;8.50;;;5.40;;
71080;SDS011;58740;50.672;18.690;2023-05-15T05:14:44;8.10;;;4.80;;
71080;SDS011;58740;50.672;18.690;2023-05-15T05:17:12;11.00;;;5.50;;
71080;SDS011;58740;50.672;18.690;2023-05-15T05:19:40;9.60;;;6.30;;
71080;SDS011;58740;50.672;18.690;2023-05-15T05:22:08;11.10;;;6.80;;
71080;SDS011;58740;50.672;18.690;2023-05-15T05:24:36;8.40;;;4.70;;
71080;SDS011;58740;50.672;18.690;2023-05-15T05:27:04;9.70;;;5.80;;
71080;SDS011;58740;50.672;18.690;2023-05-15T05:29:32;10.20;;;5.30;;
71080;SDS011;58740;50.672;18.690;2023-05-15T05:32:00;10.50;;;5.80;;
71080;SDS011;58740;50.672;18.690;2023-05-15T05:34:28;8.90;;;5.40;;
71080;SDS011;58740;50.672;18.690;2023-05-15T05:36:55;9.10;;;6.00;;
71080;SDS011;58740;50.672;18.690;2023-05-15T05:39:23;10.10;;;5.90;;
71080;SDS011;58740;50.672;18.690;2023-05-15T05:41:51;10.00;;;5.30;;
71080;SDS011;58740;50.672;18.690;2023-05-15T05:44:19;11.00;;;5.80;;
71080;SDS011;58740;50.672;18.690;2023-05-15T05:46:47;9.20;;;4.50;;
71080;SDS011;58740;50.672;18.690;2023-05-15T05:49:15;10.40;;;6.20;;
71080;SDS011;58740;50.672;18.690;2023-05-15T05:51:44;9.90;;;6.60;;
71080;SDS011;58740;50.672;18.690;2023-05-15T05:54:13;10.20;;;6.30;;
71080;SDS011;58740;50.672;18.690;2023-05-15T05:56:41;11.30;;;5.40;;
71080;SDS011;58740;50.672;18.690;2023-05-15T05:59:09;12.70;;;6.40;;
71080;SDS011;58740;50.672;18.690;2023-05-15T06:01:37;11.20;;;6.90;;
71080;SDS011;58740;50.672;18.690;2023-05-15T06:04:04;11.00;;;5.80;;
71080;SDS011;58740;50.672;18.690;2023-05-15T06:06:33;12.10;;;6.40;;
71080;SDS011;58740;50.672;18.690;2023-05-15T06:09:01;9.70;;;5.20;;
71080;SDS011;58740;50.672;18.690;2023-05-15T06:11:28;9.10;;;5.40;;
71080;SDS011;58740;50.672;18.690;2023-05-15T06:13:56;10.10;;;6.00;;
71080;SDS011;58740;50.672;18.690;2023-05-15T06:16:24;9.40;;;5.20;;
71080;SDS011;58740;50.672;18.690;2023-05-15T06:18:52;8.50;;;4.60;;
71080;SDS011;58740;50.672;18.690;2023-05-15T06:21:20;9.70;;;5.10;;
71080;SDS011;58740;50.672;18.690;2023-05-15T06:23:48;10.00;;;5.50;;
71080;SDS011;58740;50.672;18.690;2023-05-15T06:26:16;9.10;;;5.40;;
71080;SDS011;58740;50.672;18.690;2023-05-15T06:28:44;7.70;;;4.40;;
71080;SDS011;58740;50.672;18.690;2023-05-15T06:31:12;10.50;;;5.80;;
71080;SDS011;58740;50.672;18.690;2023-05-15T06:33:39;7.40;;;4.60;;
71080;SDS011;58740;50.672;18.690;2023-05-15T06:36:07;8.70;;;4.40;;
71080;SDS011;58740;50.672;18.690;2023-05-15T06:38:35;10.00;;;6.10;;
71080;SDS011;58740;50.672;18.690;2023-05-15T06:41:03;7.40;;;4.50;;
71080;SDS011;58740;50.672;18.690;2023-05-15T06:43:31;8.60;;;5.40;;
71080;SDS011;58740;50.672;18.690;2023-05-15T06:45:59;8.20;;;5.00;;
71080;SDS011;58740;50.672;18.690;2023-05-15T06:48:27;10.10;;;5.90;;
71080;SDS011;58740;50.672;18.690;2023-05-15T06:50:54;10.60;;;6.50;;
71080;SDS011;58740;50.672;18.690;2023-05-15T06:53:22;10.50;;;5.00;;
71080;SDS011;58740;50.672;18.690;2023-05-15T06:55:50;9.60;;;5.30;;
71080;SDS011;58740;50.672;18.690;2023-05-15T06:58:17;8.10;;;4.80;;
71080;SDS011;58740;50.672;18.690;2023-05-15T07:00:45;7.40;;;4.40;;
71080;SDS011;58740;50.672;18.690;2023-05-15T07:03:13;8.50;;;4.40;;
71080;SDS011;58740;50.672;18.690;2023-05-15T07:05:43;7.30;;;4.20;;
71080;SDS011;58740;50.672;18.690;2023-05-15T07:08:11;7.70;;;4.40;;
71080;SDS011;58740;50.672;18.690;2023-05-15T07:10:39;7.70;;;4.20;;
71080;SDS011;58740;50.672;18.690;2023-05-15T07:13:07;7.60;;;4.90;;
71080;SDS011;58740;50.672;18.690;2023-05-15T07:15:34;9.10;;;4.70;;
71080;SDS011;58740;50.672;18.690;2023-05-15T07:18:02;7.80;;;4.20;;
71080;SDS011;58740;50.672;18.690;2023-05-15T07:20:30;6.70;;;4.10;;
71080;SDS011;58740;50.672;18.690;2023-05-15T07:23:02;9.00;;;5.10;;
71080;SDS011;58740;50.672;18.690;2023-05-15T07:25:30;5.40;;;2.60;;
71080;SDS011;58740;50.672;18.690;2023-05-15T07:27:58;8.50;;;5.30;;
71080;SDS011;58740;50.672;18.690;2023-05-15T07:30:25;9.40;;;5.80;;
71080;SDS011;58740;50.672;18.690;2023-05-15T07:32:53;8.30;;;5.50;;
71080;SDS011;58740;50.672;18.690;2023-05-15T07:35:21;10.60;;;5.60;;
71080;SDS011;58740;50.672;18.690;2023-05-15T07:37:50;10.80;;;5.90;;
71080;SDS011;58740;50.672;18.690;2023-05-15T07:40:17;9.50;;;6.10;;
71080;SDS011;58740;50.672;18.690;2023-05-15T07:42:45;9.90;;;5.90;;
71080;SDS011;58740;50.672;18.690;2023-05-15T07:45:13;10.50;;;6.20;;
71080;SDS011;58740;50.672;18.690;2023-05-15T07:47:45;10.30;;;5.80;;
71080;SDS011;58740;50.672;18.690;2023-05-15T07:50:14;11.60;;;6.70;;
71080;SDS011;58740;50.672;18.690;2023-05-15T07:52:43;12.50;;;7.90;;
71080;SDS011;58740;50.672;18.690;2023-05-15T07:55:11;9.50;;;5.80;;
71080;SDS011;58740;50.672;18.690;2023-05-15T07:57:39;11.40;;;7.60;;
71080;SDS011;58740;50.672;18.690;2023-05-15T08:00:08;9.50;;;6.00;;
71080;SDS011;58740;50.672;18.690;2023-05-15T08:02:44;9.30;;;6.10;;
71080;SDS011;58740;50.672;18.690;2023-05-15T08:05:13;9.50;;;6.60;;
71080;SDS011;58740;50.672;18.690;2023-05-15T08:07:50;9.20;;;5.70;;
71080;SDS011;58740;50.672;18.690;2023-05-15T08:10:18;7.80;;;4.70;;
71080;SDS011;58740;50.672;18.690;2023-05-15T08:12:53;6.30;;;3.20;;
71080;SDS011;58740;50.672;18.690;2023-05-15T08:15:37;8.00;;;4.50;;
71080;SDS011;58740;50.672;18.690;2023-05-15T08:18:09;8.50;;;5.10;;
71080;SDS011;58740;50.672;18.690;2023-05-15T08:20:41;15.70;;;9.40;;
71080;SDS011;58740;50.672;18.690;2023-05-15T08:23:09;12.50;;;7.20;;
71080;SDS011;58740;50.672;18.690;2023-05-15T08:25:39;10.20;;;5.50;;
71080;SDS011;58740;50.672;18.690;2023-05-15T08:28:07;9.70;;;6.10;;
71080;SDS011;58740;50.672;18.690;2023-05-15T08:30:35;7.90;;;4.30;;
71080;SDS011;58740;50.672;18.690;2023-05-15T08:33:03;6.90;;;3.90;;
71080;SDS011;58740;50.672;18.690;2023-05-15T08:35:31;7.70;;;5.10;;
71080;SDS011;58740;50.672;18.690;2023-05-15T08:37:59;9.90;;;5.00;;
71080;SDS011;58740;50.672;18.690;2023-05-15T08:40:45;9.80;;;6.20;;
71080;SDS011;58740;50.672;18.690;2023-05-15T08:43:15;7.90;;;4.40;;
71080;SDS011;58740;50.672;18.690;2023-05-15T08:45:44;8.50;;;4.40;;
71080;SDS011;58740;50.672;18.690;2023-05-15T08:48:14;9.20;;;5.10;;
71080;SDS011;58740;50.672;18.690;2023-05-15T08:50:44;7.80;;;5.10;;
71080;SDS011;58740;50.672;18.690;2023-05-15T08:53:13;5.40;;;3.00;;
71080;SDS011;58740;50.672;18.690;2023-05-15T08:55:41;6.50;;;3.10;;
71080;SDS011;58740;50.672;18.690;2023-05-15T08:58:12;6.20;;;3.80;;
71080;SDS011;58740;50.672;18.690;2023-05-15T09:00:41;8.00;;;4.10;;
71080;SDS011;58740;50.672;18.690;2023-05-15T09:03:15;7.50;;;3.20;;
71080;SDS011;58740;50.672;18.690;2023-05-15T09:05:46;5.10;;;2.30;;
71080;SDS011;58740;50.672;18.690;2023-05-15T09:08:16;6.50;;;3.20;;
71080;SDS011;58740;50.672;18.690;2023-05-15T09:10:47;5.00;;;2.80;;
71080;SDS011;58740;50.672;18.690;2023-05-15T09:13:16;6.30;;;3.20;;
71080;SDS011;58740;50.672;18.690;2023-05-15T09:15:45;4.50;;;2.30;;
71080;SDS011;58740;50.672;18.690;2023-05-15T09:18:16;5.20;;;3.00;;
71080;SDS011;58740;50.672;18.690;2023-05-15T09:20:44;4.10;;;1.80;;
71080;SDS011;58740;50.672;18.690;2023-05-15T09:23:24;6.70;;;3.60;;
71080;SDS011;58740;50.672;18.690;2023-05-15T09:25:53;3.90;;;1.90;;
71080;SDS011;58740;50.672;18.690;2023-05-15T09:28:33;6.90;;;2.70;;
71080;SDS011;58740;50.672;18.690;2023-05-15T09:31:04;4.30;;;2.00;;
71080;SDS011;58740;50.672;18.690;2023-05-15T09:33:34;4.20;;;2.00;;
71080;SDS011;58740;50.672;18.690;2023-05-15T09:36:05;9.10;;;4.10;;
71080;SDS011;58740;50.672;18.690;2023-05-15T09:38:38;6.50;;;3.00;;
71080;SDS011;58740;50.672;18.690;2023-05-15T09:41:09;6.00;;;2.80;;
71080;SDS011;58740;50.672;18.690;2023-05-15T09:43:37;7.80;;;2.90;;
71080;SDS011;58740;50.672;18.690;2023-05-15T09:46:07;4.40;;;2.20;;
71080;SDS011;58740;50.672;18.690;2023-05-15T09:48:36;4.90;;;1.80;;
71080;SDS011;58740;50.672;18.690;2023-05-15T09:51:16;8.50;;;2.90;;
71080;SDS011;58740;50.672;18.690;2023-05-15T09:53:49;8.40;;;3.40;;
71080;SDS011;58740;50.672;18.690;2023-05-15T09:56:18;6.60;;;2.40;;
71080;SDS011;58740;50.672;18.690;2023-05-15T09:58:53;13.40;;;3.10;;
71080;SDS011;58740;50.672;18.690;2023-05-15T10:01:23;6.00;;;2.30;;
71080;SDS011;58740;50.672;18.690;2023-05-15T10:03:59;4.70;;;2.10;;
71080;SDS011;58740;50.672;18.690;2023-05-15T10:06:35;5.30;;;2.30;;
71080;SDS011;58740;50.672;18.690;2023-05-15T10:09:04;4.80;;;2.50;;
71080;SDS011;58740;50.672;18.690;2023-05-15T10:11:34;7.70;;;3.80;;
71080;SDS011;58740;50.672;18.690;2023-05-15T10:14:08;13.40;;;7.70;;
71080;SDS011;58740;50.672;18.690;2023-05-15T10:16:38;9.10;;;4.50;;
71080;SDS011;58740;50.672;18.690;2023-05-15T10:19:09;5.70;;;2.90;;
71080;SDS011;58740;50.672;18.690;2023-05-15T10:21:39;9.20;;;5.70;;
71080;SDS011;58740;50.672;18.690;2023-05-15T10:24:09;10.60;;;6.30;;
71080;SDS011;58740;50.672;18.690;2023-05-15T10:26:41;8.00;;;3.50;;
71080;SDS011;58740;50.672;18.690;2023-05-15T10:29:11;7.00;;;3.30;;
71080;SDS011;58740;50.672;18.690;2023-05-15T10:31:42;6.00;;;3.20;;
71080;SDS011;58740;50.672;18.690;2023-05-15T10:34:09;8.00;;;3.50;;
71080;SDS011;58740;50.672;18.690;2023-05-15T10:36:38;6.30;;;3.60;;
71080;SDS011;58740;50.672;18.690;2023-05-15T10:39:07;8.00;;;3.60;;
71080;SDS011;58740;50.672;18.690;2023-05-15T10:41:36;7.50;;;3.90;;
71080;SDS011;58740;50.672;18.690;2023-05-15T10:44:05;11.00;;;5.30;;
71080;SDS011;58740;50.672;18.690;2023-05-15T10:46:34;8.70;;;4.70;;
71080;SDS011;58740;50.672;18.690;2023-05-15T10:49:03;8.00;;;4.70;;
71080;SDS011;58740;50.672;18.690;2023-05-15T10:51:32;7.90;;;4.30;;
71080;SDS011;58740;50.672;18.690;2023-05-15T10:54:02;6.10;;;3.90;;
71080;SDS011;58740;50.672;18.690;2023-05-15T10:56:32;6.20;;;3.60;;
71080;SDS011;58740;50.672;18.690;2023-05-15T10:59:07;8.90;;;4.40;;
71080;SDS011;58740;50.672;18.690;2023-05-15T11:01:38;7.30;;;3.80;;
71080;SDS011;58740;50.672;18.690;2023-05-15T11:04:12;8.10;;;4.20;;
71080;SDS011;58740;50.672;18.690;2023-05-15T11:06:45;7.30;;;3.70;;
71080;SDS011;58740;50.672;18.690;2023-05-15T11:11:57;8.10;;;4.40;;
71080;SDS011;58740;50.672;18.690;2023-05-15T11:14:28;8.10;;;4.30;;
71080;SDS011;58740;50.672;18.690;2023-05-15T11:17:15;7.40;;;4.10;;
71080;SDS011;58740;50.672;18.690;2023-05-15T11:22:34;8.30;;;4.30;;
71080;SDS011;58740;50.672;18.690;2023-05-15T11:25:09;9.10;;;4.90;;
71080;SDS011;58740;50.672;18.690;2023-05-15T11:27:44;10.30;;;4.60;;
71080;SDS011;58740;50.672;18.690;2023-05-15T11:30:17;9.90;;;4.70;;
71080;SDS011;58740;50.672;18.690;2023-05-15T11:32:59;6.40;;;3.20;;
71080;SDS011;58740;50.672;18.690;2023-05-15T11:43:24;7.00;;;3.40;;
71080;SDS011;58740;50.672;18.690;2023-05-15T11:45:54;6.70;;;3.50;;
71080;SDS011;58740;50.672;18.690;2023-05-15T11:48:30;7.00;;;3.50;;
71080;SDS011;58740;50.672;18.690;2023-05-15T11:51:19;7.70;;;4.00;;
71080;SDS011;58740;50.672;18.690;2023-05-15T11:53:50;6.00;;;2.70;;
71080;SDS011;58740;50.672;18.690;2023-05-15T11:56:21;5.10;;;2.60;;
71080;SDS011;58740;50.672;18.690;2023-05-15T11:58:58;5.60;;;2.70;;
71080;SDS011;58740;50.672;18.690;2023-05-15T12:01:38;5.70;;;2.40;;
71080;SDS011;58740;50.672;18.690;2023-05-15T12:04:14;5.50;;;2.80;;
71080;SDS011;58740;50.672;18.690;2023-05-15T12:06:44;6.30;;;3.30;;
71080;SDS011;58740;50.672;18.690;2023-05-15T12:09:17;5.50;;;2.80;;
71080;SDS011;58740;50.672;18.690;2023-05-15T12:11:55;5.80;;;2.50;;
71080;SDS011;58740;50.672;18.690;2023-05-15T12:14:27;5.20;;;2.90;;
71080;SDS011;58740;50.672;18.690;2023-05-15T12:17:01;6.20;;;3.10;;
71080;SDS011;58740;50.672;18.690;2023-05-15T12:19:32;6.50;;;3.00;;
71080;SDS011;58740;50.672;18.690;2023-05-15T12:22:03;7.50;;;3.10;;
71080;SDS011;58740;50.672;18.690;2023-05-15T12:24:32;6.90;;;3.30;;
71080;SDS011;58740;50.672;18.690;2023-05-15T12:27:06;6.80;;;3.60;;
71080;SDS011;58740;50.672;18.690;2023-05-15T12:29:36;7.40;;;3.20;;
71080;SDS011;58740;50.672;18.690;2023-05-15T12:32:05;6.40;;;3.40;;
71080;SDS011;58740;50.672;18.690;2023-05-15T12:34:35;6.10;;;3.20;;
71080;SDS011;58740;50.672;18.690;2023-05-15T12:37:04;6.80;;;3.40;;
71080;SDS011;58740;50.672;18.690;2023-05-15T12:39:31;7.70;;;3.40;;
71080;SDS011;58740;50.672;18.690;2023-05-15T12:41:59;9.70;;;4.80;;
71080;SDS011;58740;50.672;18.690;2023-05-15T12:44:27;6.30;;;3.30;;
71080;SDS011;58740;50.672;18.690;2023-05-15T12:46:55;8.40;;;3.60;;
71080;SDS011;58740;50.672;18.690;2023-05-15T12:49:23;6.50;;;3.30;;
71080;SDS011;58740;50.672;18.690;2023-05-15T12:51:51;6.30;;;3.20;;
71080;SDS011;58740;50.672;18.690;2023-05-15T12:54:19;6.00;;;3.00;;
71080;SDS011;58740;50.672;18.690;2023-05-15T12:56:47;10.30;;;3.70;;
71080;SDS011;58740;50.672;18.690;2023-05-15T12:59:15;6.70;;;2.90;;
71080;SDS011;58740;50.672;18.690;2023-05-15T13:01:43;5.30;;;2.20;;
71080;SDS011;58740;50.672;18.690;2023-05-15T13:04:11;4.70;;;2.20;;
71080;SDS011;58740;50.672;18.690;2023-05-15T13:06:39;3.60;;;1.50;;
71080;SDS011;58740;50.672;18.690;2023-05-15T13:09:10;3.00;;;1.20;;
71080;SDS011;58740;50.672;18.690;2023-05-15T13:11:43;3.10;;;1.10;;
71080;SDS011;58740;50.672;18.690;2023-05-15T13:14:12;4.20;;;1.30;;
71080;SDS011;58740;50.672;18.690;2023-05-15T13:16:45;3.70;;;1.30;;
71080;SDS011;58740;50.672;18.690;2023-05-15T13:19:13;3.40;;;1.30;;
71080;SDS011;58740;50.672;18.690;2023-05-15T13:21:42;3.50;;;1.40;;
71080;SDS011;58740;50.672;18.690;2023-05-15T13:24:11;3.40;;;1.20;;
71080;SDS011;58740;50.672;18.690;2023-05-15T13:26:39;2.10;;;0.90;;
71080;SDS011;58740;50.672;18.690;2023-05-15T13:29:07;2.60;;;1.20;;
71080;SDS011;58740;50.672;18.690;2023-05-15T13:31:35;2.30;;;1.00;;
71080;SDS011;58740;50.672;18.690;2023-05-15T13:34:02;4.10;;;1.00;;
71080;SDS011;58740;50.672;18.690;2023-05-15T13:36:30;3.00;;;1.10;;
71080;SDS011;58740;50.672;18.690;2023-05-15T13:38:58;3.50;;;1.10;;
71080;SDS011;58740;50.672;18.690;2023-05-15T13:41:26;4.10;;;1.30;;
71080;SDS011;58740;50.672;18.690;2023-05-15T13:43:54;3.80;;;1.10;;
71080;SDS011;58740;50.672;18.690;2023-05-15T13:46:22;3.10;;;1.10;;
71080;SDS011;58740;50.672;18.690;2023-05-15T13:48:49;2.20;;;1.00;;
71080;SDS011;58740;50.672;18.690;2023-05-15T13:51:17;3.70;;;1.30;;
71080;SDS011;58740;50.672;18.690;2023-05-15T13:53:45;4.20;;;1.40;;
71080;SDS011;58740;50.672;18.690;2023-05-15T13:56:12;2.80;;;1.10;;
71080;SDS011;58740;50.672;18.690;2023-05-15T13:58:40;3.20;;;1.40;;
71080;SDS011;58740;50.672;18.690;2023-05-15T14:01:09;3.30;;;1.40;;
71080;SDS011;58740;50.672;18.690;2023-05-15T14:03:36;3.80;;;1.30;;
71080;SDS011;58740;50.672;18.690;2023-05-15T14:06:05;2.10;;;0.80;;
71080;SDS011;58740;50.672;18.690;2023-05-15T14:08:32;2.30;;;0.90;;
71080;SDS011;58740;50.672;18.690;2023-05-15T14:11:00;3.00;;;0.80;;
71080;SDS011;58740;50.672;18.690;2023-05-15T14:13:28;1.90;;;0.90;;
71080;SDS011;58740;50.672;18.690;2023-05-15T14:15:58;2.10;;;1.00;;
71080;SDS011;58740;50.672;18.690;2023-05-15T14:18:25;3.00;;;0.90;;
71080;SDS011;58740;50.672;18.690;2023-05-15T14:20:53;2.10;;;0.90;;
71080;SDS011;58740;50.672;18.690;2023-05-15T14:23:21;3.80;;;1.10;;
71080;SDS011;58740;50.672;18.690;2023-05-15T14:25:48;2.10;;;0.80;;
71080;SDS011;58740;50.672;18.690;2023-05-15T14:28:16;3.50;;;1.10;;
71080;SDS011;58740;50.672;18.690;2023-05-15T14:30:44;2.10;;;0.90;;
71080;SDS011;58740;50.672;18.690;2023-05-15T14:33:12;2.80;;;1.20;;
71080;SDS011;58740;50.672;18.690;2023-05-15T14:35:40;3.20;;;0.90;;
71080;SDS011;58740;50.672;18.690;2023-05-15T14:38:08;3.40;;;1.10;;
71080;SDS011;58740;50.672;18.690;2023-05-15T14:40:35;1.90;;;0.90;;
71080;SDS011;58740;50.672;18.690;2023-05-15T14:43:03;1.50;;;0.70;;
71080;SDS011;58740;50.672;18.690;2023-05-15T14:45:31;1.80;;;0.70;;
71080;SDS011;58740;50.672;18.690;2023-05-15T14:47:59;2.20;;;0.90;;
71080;SDS011;58740;50.672;18.690;2023-05-15T14:50:27;3.40;;;1.20;;
71080;SDS011;58740;50.672;18.690;2023-05-15T14:52:55;3.80;;;1.60;;
71080;SDS011;58740;50.672;18.690;2023-05-15T14:55:22;5.00;;;2.00;;
71080;SDS011;58740;50.672;18.690;2023-05-15T14:57:50;6.50;;;3.40;;
71080;SDS011;58740;50.672;18.690;2023-05-15T15:00:18;7.50;;;3.70;;
71080;SDS011;58740;50.672;18.690;2023-05-15T15:02:46;4.80;;;2.40;;
71080;SDS011;58740;50.672;18.690;2023-05-15T15:05:14;4.20;;;1.80;;
71080;SDS011;58740;50.672;18.690;2023-05-15T15:10:33;3.20;;;1.30;;
71080;SDS011;58740;50.672;18.690;2023-05-15T15:13:04;6.20;;;1.60;;
71080;SDS011;58740;50.672;18.690;2023-05-15T15:15:33;3.80;;;1.80;;
71080;SDS011;58740;50.672;18.690;2023-05-15T15:18:01;5.20;;;1.90;;